This is the latest recevied weather packets stored in our database for station/object KK6LZB. If no packets are shown the sender has not sent any weather packets the latest 10 day(s).
| Time | Temp. | Humidity | Pressure | Rain* | Wind** | Luminosity | Snow |
|---|---|---|---|---|---|---|---|
| 1777559679 | 13.89° C | 94% | 1015.4 hPa | 0 mm | - | 76 W/m² | - |
| 1777559377 | 13.33° C | 95% | 1015.6 hPa | 0 mm | - | 77 W/m² | - |
| 1777559073 | 12.78° C | 97% | 1015.3 hPa | 0 mm | - | 66 W/m² | - |
| 1777558768 | 12.22° C | 98% | 1015.6 hPa | 0 mm | - | 57 W/m² | - |
| 1777558464 | 12.22° C | 98% | 1015.2 hPa | 0 mm | - | 40 W/m² | - |
| 1777558161 | 11.67° C | 98% | 1015.2 hPa | 0 mm | - | 34 W/m² | - |
| 1777557857 | 11.67° C | 99% | 1015 hPa | 0 mm | - | 31 W/m² | - |
| 1777557555 | 11.67° C | 99% | 1015.3 hPa | 0 mm | - | 41 W/m² | - |
| 1777557250 | 11.11° C | 99% | 1015.2 hPa | 0 mm | - | 26 W/m² | - |
| 1777556946 | 11.11° C | 99% | 1015.1 hPa | 0 mm | - | 23 W/m² | - |
| 1777556642 | 11.11° C | 99% | 1015.3 hPa | 0 mm | - | 25 W/m² | - |
| 1777556336 | 10.56° C | 99% | 1015.2 hPa | 0 mm | - | 22 W/m² | - |
| 1777556033 | 10.56° C | 99% | 1015.2 hPa | 0 mm | - | 14 W/m² | - |
| 1777555728 | 10.56° C | 99% | 1015.2 hPa | 0 mm | - | 12 W/m² | - |
| 1777555424 | 10.56° C | 99% | 1015.1 hPa | 0 mm | - | 9 W/m² | - |
| 1777555121 | 10.56° C | 99% | 1015.1 hPa | 0 mm | - | 7 W/m² | - |
| 1777554818 | 10.56° C | 99% | 1015 hPa | 0 mm | - | 5 W/m² | - |
| 1777554515 | 10.56° C | 99% | 1014.9 hPa | 0 mm | - | 3 W/m² | - |
| 1777554212 | 10.56° C | 99% | 1015.2 hPa | 0 mm | - | 2 W/m² | - |
| 1777553909 | 10.56° C | 99% | 1015 hPa | 0 mm | - | 1 W/m² | - |
| 1777553605 | 11.11° C | 99% | 1015.1 hPa | 0 mm | - | 0 W/m² | - |
| 1777553302 | 11.11° C | 99% | 1015.1 hPa | 0 mm | - | 0 W/m² | - |
| 1777552998 | 10.56° C | 99% | 1015 hPa | 0 mm | - | 0 W/m² | - |
| 1777552697 | 10.56° C | 99% | 1015.2 hPa | 0 mm | - | 0 W/m² | - |
| 1777552394 | 10.56° C | 99% | 1015 hPa | 0 mm | - | 0 W/m² | - |
* Rain latest hour (hover to see other rain measurements)
** Current wind speed in m/s (hover to see current wind gust speed)